createdAt,value
2018-09-06T00:01:17.646Z,14.90
2018-09-06T00:03:56.938Z,14.97
2018-09-06T00:06:28.189Z,14.50
2018-09-06T00:11:43.408Z,14.87
2018-09-06T00:14:14.529Z,14.50
2018-09-06T00:17:00.269Z,14.30
2018-09-06T00:19:41.212Z,14.87
2018-09-06T00:22:12.205Z,14.23
2018-09-06T00:24:43.236Z,14.40
2018-09-06T00:27:24.299Z,14.60
2018-09-06T00:29:55.686Z,15.23
2018-09-06T00:32:26.893Z,13.43
2018-09-06T00:35:06.034Z,13.80
2018-09-06T00:37:37.134Z,13.77
2018-09-06T00:40:19.208Z,12.37
2018-09-06T00:42:50.344Z,14.77
2018-09-06T00:48:06.615Z,14.40
2018-09-06T00:50:37.769Z,14.37
2018-09-06T00:53:24.279Z,15.23
2018-09-06T00:56:06.092Z,14.97
2018-09-06T00:58:37.224Z,15.17
2018-09-06T01:01:08.544Z,13.63
2018-09-06T01:03:48.929Z,13.53
2018-09-06T01:06:20.029Z,14.77
2018-09-06T01:08:51.029Z,14.57
2018-09-06T01:11:29.829Z,14.43
2018-09-06T01:14:00.828Z,13.90
2018-09-06T01:16:41.681Z,14.33
2018-09-06T01:19:14.305Z,14.40
2018-09-06T01:21:45.301Z,13.93
2018-09-06T01:24:26.984Z,14.23
2018-09-06T01:26:59.411Z,13.33
2018-09-06T01:29:41.742Z,12.20
2018-09-06T01:32:13.058Z,13.73
2018-09-06T01:34:44.370Z,14.30
2018-09-06T01:37:25.522Z,13.13
2018-09-06T01:39:57.550Z,14.87
2018-09-06T01:43:16.857Z,13.00
2018-09-06T01:45:49.036Z,13.30
2018-09-06T01:48:20.233Z,13.80
2018-09-06T01:50:59.807Z,14.00
2018-09-06T01:53:30.892Z,14.57
2018-09-06T01:56:01.877Z,14.20
2018-09-06T01:58:32.998Z,13.40
2018-09-06T02:01:12.506Z,13.50
2018-09-06T02:03:43.848Z,12.33
2018-09-06T02:06:15.021Z,13.33
2018-09-06T02:08:54.230Z,13.70
2018-09-06T02:11:25.479Z,14.50
2018-09-06T02:13:56.568Z,14.63
2018-09-06T02:16:35.054Z,14.57
2018-09-06T02:19:06.617Z,14.43
2018-09-06T02:21:38.675Z,14.40
2018-09-06T02:24:19.444Z,14.77
2018-09-06T02:26:50.511Z,15.73
2018-09-06T02:29:32.199Z,15.73
2018-09-06T02:32:03.555Z,15.17
2018-09-06T02:37:16.990Z,14.47
2018-09-06T02:39:49.101Z,13.53
2018-09-06T02:42:27.458Z,15.53
2018-09-06T02:44:59.003Z,14.33
2018-09-06T02:47:30.215Z,13.57
2018-09-06T02:50:08.067Z,12.27
2018-09-06T02:52:38.958Z,12.83
2018-09-06T02:55:10.193Z,12.47
2018-09-06T02:57:43.507Z,13.33
2018-09-06T03:00:17.558Z,12.90
2018-09-06T03:02:48.592Z,13.53
2018-09-06T03:05:19.853Z,13.93
2018-09-06T03:07:50.901Z,14.23
2018-09-06T03:10:22.676Z,14.40
2018-09-06T03:12:54.076Z,14.10
2018-09-06T03:15:25.131Z,13.03
2018-09-06T03:17:56.218Z,13.07
2018-09-06T03:20:27.242Z,13.37
2018-09-06T03:22:58.211Z,12.97
2018-09-06T03:25:29.277Z,14.37
2018-09-06T03:28:00.239Z,14.67
2018-09-06T03:30:31.325Z,13.90
2018-09-06T03:33:02.320Z,13.17
2018-09-06T03:35:34.009Z,13.00
2018-09-06T03:38:05.087Z,15.17
2018-09-06T03:40:36.317Z,14.00
2018-09-06T03:43:07.681Z,14.10
2018-09-06T03:45:38.701Z,13.57
2018-09-06T03:48:09.724Z,13.53
2018-09-06T03:50:41.835Z,13.90
2018-09-06T03:53:12.949Z,14.03
2018-09-06T03:55:45.449Z,15.47
2018-09-06T03:58:16.699Z,13.27
2018-09-06T04:03:31.395Z,14.70
2018-09-06T04:06:02.362Z,14.53
2018-09-06T04:08:36.127Z,14.63
2018-09-06T04:11:08.408Z,14.53
2018-09-06T04:13:44.645Z,14.00
2018-09-06T04:16:21.430Z,14.57
2018-09-06T04:18:53.508Z,13.37
2018-09-06T04:21:25.459Z,15.50
2018-09-06T04:23:56.699Z,14.47
2018-09-06T04:26:27.857Z,15.20
2018-09-06T04:28:59.030Z,13.77
2018-09-06T04:31:30.499Z,13.57
2018-09-06T04:34:01.595Z,14.73
2018-09-06T04:36:32.824Z,14.90
2018-09-06T04:39:04.208Z,14.40
2018-09-06T04:41:35.261Z,14.80
2018-09-06T04:44:06.571Z,14.93
2018-09-06T04:46:37.625Z,14.27
2018-09-06T04:49:09.693Z,13.67
2018-09-06T04:51:40.703Z,13.20
2018-09-06T04:54:11.813Z,13.17
2018-09-06T04:56:43.157Z,12.53
2018-09-06T04:59:15.974Z,12.60
2018-09-06T05:01:48.695Z,12.17
2018-09-06T05:04:21.473Z,10.83
2018-09-06T05:28:12.103Z,10.80
2018-09-06T05:30:43.079Z,11.10
2018-09-06T05:33:14.087Z,11.87
2018-09-06T05:35:45.073Z,11.70
2018-09-06T05:38:16.247Z,11.87
2018-09-06T05:40:47.437Z,11.30
2018-09-06T05:43:18.901Z,10.53
2018-09-06T05:45:49.821Z,10.97
2018-09-06T05:48:20.687Z,11.20
2018-09-06T05:50:51.668Z,11.37
2018-09-06T05:53:22.760Z,12.90
2018-09-06T05:55:54.972Z,10.80
2018-09-06T05:58:26.081Z,12.53
2018-09-06T06:00:57.123Z,12.07
2018-09-06T06:03:29.527Z,12.47
2018-09-06T06:06:00.512Z,13.47
2018-09-06T06:08:42.200Z,12.67
2018-09-06T06:11:13.245Z,12.73
2018-09-06T06:13:44.869Z,12.47
2018-09-06T06:16:15.900Z,12.30
2018-09-06T06:18:47.696Z,11.07
2018-09-06T06:21:19.712Z,11.23
2018-09-06T06:23:52.759Z,12.20
2018-09-06T06:26:24.726Z,11.40
2018-09-06T06:28:57.454Z,12.77
2018-09-06T06:31:32.940Z,12.53
2018-09-06T06:34:04.324Z,11.80
2018-09-06T06:36:35.670Z,12.40
2018-09-06T06:39:11.934Z,11.47
2018-09-06T06:41:46.777Z,12.17
2018-09-06T06:44:19.304Z,11.33
2018-09-06T06:46:53.404Z,11.43
2018-09-06T06:49:26.256Z,12.47
2018-09-06T06:51:57.007Z,11.37
2018-09-06T06:54:27.731Z,11.80
2018-09-06T06:56:58.861Z,11.10
2018-09-06T06:59:29.873Z,11.60
2018-09-06T07:02:00.870Z,11.80
2018-09-06T07:04:33.008Z,11.67
2018-09-06T07:07:06.113Z,10.53
2018-09-06T07:09:38.028Z,10.67
2018-09-06T07:12:09.028Z,11.23
2018-09-06T07:14:41.457Z,12.13
2018-09-06T07:17:19.696Z,10.83
2018-09-06T07:19:51.848Z,11.13
2018-09-06T07:22:22.874Z,11.50
2018-09-06T07:24:55.999Z,10.67
2018-09-06T07:27:31.686Z,11.27
2018-09-06T07:30:05.065Z,11.47
2018-09-06T07:32:37.233Z,10.80
2018-09-06T07:35:14.673Z,10.73
2018-09-06T07:37:50.249Z,10.63
2018-09-06T07:40:28.015Z,10.50
2018-09-06T07:43:01.549Z,9.83
2018-09-06T07:45:35.856Z,9.97
2018-09-06T07:48:07.616Z,10.43
2018-09-06T07:50:48.606Z,10.43
2018-09-06T07:53:20.835Z,9.83
2018-09-06T07:55:53.145Z,9.90
2018-09-06T07:58:24.302Z,9.80
2018-09-06T08:01:09.318Z,10.13
2018-09-06T08:03:40.641Z,9.50
2018-09-06T08:06:11.775Z,9.17
2018-09-06T08:08:42.745Z,10.10
2018-09-06T08:11:13.754Z,10.17
2018-09-06T08:13:44.721Z,10.20
2018-09-06T08:16:17.124Z,10.17
2018-09-06T08:18:48.368Z,9.37
2018-09-06T08:21:19.871Z,8.50
2018-09-06T08:23:51.199Z,8.53
2018-09-06T08:26:22.441Z,8.70
2018-09-06T08:28:53.563Z,8.10
2018-09-06T08:31:24.718Z,8.13
2018-09-06T08:33:57.138Z,8.43
2018-09-06T08:36:28.192Z,7.70
2018-09-06T08:38:59.577Z,8.00
2018-09-06T08:41:30.759Z,7.87
2018-09-06T08:44:03.296Z,8.43
2018-09-06T08:46:35.344Z,9.07
2018-09-06T08:49:07.484Z,9.33
2018-09-06T08:51:48.391Z,9.00
2018-09-06T08:54:22.573Z,8.10
2018-09-06T08:56:55.177Z,7.80
2018-09-06T09:04:13.673Z,8.30
2018-09-06T09:48:18.504Z,7.23
2018-09-06T09:51:16.660Z,6.93
2018-09-06T10:44:50.499Z,6.97
2018-09-06T10:48:06.570Z,6.93
